sensor_id;sensor_type;location;lat;lon;timestamp;P1;durP1;ratioP1;P2;durP2;ratioP2
42200;SDS011;27869;51.442;7.540;2022-10-23T00:00:30;20.20;;;6.53;;
42200;SDS011;27869;51.442;7.540;2022-10-23T00:02:57;15.85;;;5.13;;
42200;SDS011;27869;51.442;7.540;2022-10-23T00:05:24;14.45;;;5.22;;
42200;SDS011;27869;51.442;7.540;2022-10-23T00:07:54;17.05;;;5.35;;
42200;SDS011;27869;51.442;7.540;2022-10-23T00:10:23;21.17;;;5.93;;
42200;SDS011;27869;51.442;7.540;2022-10-23T00:12:52;18.60;;;5.97;;
42200;SDS011;27869;51.442;7.540;2022-10-23T00:15:20;21.55;;;6.45;;
42200;SDS011;27869;51.442;7.540;2022-10-23T00:17:48;19.45;;;6.75;;
42200;SDS011;27869;51.442;7.540;2022-10-23T00:20:15;19.60;;;6.03;;
42200;SDS011;27869;51.442;7.540;2022-10-23T00:22:42;23.38;;;6.35;;
42200;SDS011;27869;51.442;7.540;2022-10-23T00:25:11;17.63;;;6.13;;
42200;SDS011;27869;51.442;7.540;2022-10-23T00:27:37;17.25;;;6.07;;
42200;SDS011;27869;51.442;7.540;2022-10-23T00:30:05;17.45;;;6.00;;
42200;SDS011;27869;51.442;7.540;2022-10-23T00:32:32;16.02;;;5.50;;
42200;SDS011;27869;51.442;7.540;2022-10-23T00:34:59;15.18;;;5.13;;
42200;SDS011;27869;51.442;7.540;2022-10-23T00:37:26;15.68;;;5.03;;
42200;SDS011;27869;51.442;7.540;2022-10-23T00:39:53;16.52;;;5.05;;
42200;SDS011;27869;51.442;7.540;2022-10-23T00:42:22;17.33;;;4.80;;
42200;SDS011;27869;51.442;7.540;2022-10-23T00:45:07;16.67;;;4.70;;
42200;SDS011;27869;51.442;7.540;2022-10-23T00:47:44;13.93;;;4.25;;
42200;SDS011;27869;51.442;7.540;2022-10-23T00:50:12;15.00;;;3.92;;
42200;SDS011;27869;51.442;7.540;2022-10-23T00:52:41;12.63;;;3.60;;
42200;SDS011;27869;51.442;7.540;2022-10-23T00:55:11;19.52;;;3.72;;
42200;SDS011;27869;51.442;7.540;2022-10-23T00:57:41;14.13;;;3.78;;
42200;SDS011;27869;51.442;7.540;2022-10-23T01:00:11;19.75;;;3.58;;
42200;SDS011;27869;51.442;7.540;2022-10-23T01:02:41;18.83;;;4.00;;
42200;SDS011;27869;51.442;7.540;2022-10-23T01:05:08;18.35;;;4.70;;
42200;SDS011;27869;51.442;7.540;2022-10-23T01:07:36;17.90;;;5.55;;
42200;SDS011;27869;51.442;7.540;2022-10-23T01:10:09;20.50;;;5.35;;
42200;SDS011;27869;51.442;7.540;2022-10-23T01:12:45;14.55;;;4.60;;
42200;SDS011;27869;51.442;7.540;2022-10-23T01:15:17;14.93;;;4.60;;
42200;SDS011;27869;51.442;7.540;2022-10-23T01:17:50;16.60;;;4.05;;
42200;SDS011;27869;51.442;7.540;2022-10-23T01:20:24;15.65;;;4.18;;
42200;SDS011;27869;51.442;7.540;2022-10-23T01:23:04;16.67;;;4.03;;
42200;SDS011;27869;51.442;7.540;2022-10-23T01:25:57;15.13;;;3.85;;
42200;SDS011;27869;51.442;7.540;2022-10-23T01:28:38;13.05;;;3.80;;
42200;SDS011;27869;51.442;7.540;2022-10-23T01:31:13;12.77;;;3.53;;
42200;SDS011;27869;51.442;7.540;2022-10-23T01:33:44;12.77;;;3.05;;
42200;SDS011;27869;51.442;7.540;2022-10-23T01:36:15;14.88;;;3.58;;
42200;SDS011;27869;51.442;7.540;2022-10-23T01:38:47;10.80;;;2.75;;
42200;SDS011;27869;51.442;7.540;2022-10-23T01:41:23;11.07;;;3.13;;
42200;SDS011;27869;51.442;7.540;2022-10-23T01:43:56;11.10;;;2.85;;
42200;SDS011;27869;51.442;7.540;2022-10-23T01:46:29;14.05;;;3.35;;
42200;SDS011;27869;51.442;7.540;2022-10-23T01:48:59;12.70;;;3.50;;
42200;SDS011;27869;51.442;7.540;2022-10-23T01:51:29;18.90;;;3.92;;
42200;SDS011;27869;51.442;7.540;2022-10-23T01:53:58;11.40;;;3.05;;
42200;SDS011;27869;51.442;7.540;2022-10-23T01:56:27;11.35;;;2.78;;
42200;SDS011;27869;51.442;7.540;2022-10-23T01:59:00;14.77;;;3.22;;
42200;SDS011;27869;51.442;7.540;2022-10-23T02:01:30;13.48;;;2.92;;
42200;SDS011;27869;51.442;7.540;2022-10-23T02:04:00;14.35;;;3.75;;
42200;SDS011;27869;51.442;7.540;2022-10-23T02:06:30;13.00;;;3.38;;
42200;SDS011;27869;51.442;7.540;2022-10-23T02:08:57;20.83;;;3.25;;
42200;SDS011;27869;51.442;7.540;2022-10-23T02:11:24;15.77;;;3.47;;
42200;SDS011;27869;51.442;7.540;2022-10-23T02:13:53;13.65;;;3.50;;
42200;SDS011;27869;51.442;7.540;2022-10-23T02:16:29;12.40;;;3.08;;
42200;SDS011;27869;51.442;7.540;2022-10-23T02:19:02;13.23;;;3.10;;
42200;SDS011;27869;51.442;7.540;2022-10-23T02:21:38;14.23;;;2.83;;
42200;SDS011;27869;51.442;7.540;2022-10-23T02:24:11;16.38;;;2.70;;
42200;SDS011;27869;51.442;7.540;2022-10-23T02:26:41;10.73;;;2.85;;
42200;SDS011;27869;51.442;7.540;2022-10-23T02:29:14;11.57;;;2.80;;
42200;SDS011;27869;51.442;7.540;2022-10-23T02:31:47;14.13;;;2.88;;
42200;SDS011;27869;51.442;7.540;2022-10-23T02:34:14;14.15;;;2.95;;
42200;SDS011;27869;51.442;7.540;2022-10-23T02:36:41;10.45;;;2.80;;
42200;SDS011;27869;51.442;7.540;2022-10-23T02:39:08;13.35;;;3.17;;
42200;SDS011;27869;51.442;7.540;2022-10-23T02:41:39;18.05;;;3.40;;
42200;SDS011;27869;51.442;7.540;2022-10-23T02:44:20;12.60;;;2.72;;
42200;SDS011;27869;51.442;7.540;2022-10-23T02:46:58;10.27;;;2.88;;
42200;SDS011;27869;51.442;7.540;2022-10-23T02:49:34;15.73;;;2.88;;
42200;SDS011;27869;51.442;7.540;2022-10-23T02:52:08;12.75;;;2.50;;
42200;SDS011;27869;51.442;7.540;2022-10-23T02:54:49;11.10;;;2.40;;
42200;SDS011;27869;51.442;7.540;2022-10-23T02:57:32;9.63;;;2.55;;
42200;SDS011;27869;51.442;7.540;2022-10-23T03:00:04;11.90;;;2.58;;
42200;SDS011;27869;51.442;7.540;2022-10-23T03:02:36;11.48;;;2.47;;
42200;SDS011;27869;51.442;7.540;2022-10-23T03:05:06;10.35;;;2.72;;
42200;SDS011;27869;51.442;7.540;2022-10-23T03:07:35;11.25;;;2.53;;
42200;SDS011;27869;51.442;7.540;2022-10-23T03:10:04;15.57;;;3.13;;
42200;SDS011;27869;51.442;7.540;2022-10-23T03:12:32;14.23;;;2.80;;
42200;SDS011;27869;51.442;7.540;2022-10-23T03:14:59;8.85;;;2.40;;
42200;SDS011;27869;51.442;7.540;2022-10-23T03:17:26;13.20;;;2.63;;
42200;SDS011;27869;51.442;7.540;2022-10-23T03:19:54;10.30;;;2.63;;
42200;SDS011;27869;51.442;7.540;2022-10-23T03:22:21;10.52;;;2.47;;
42200;SDS011;27869;51.442;7.540;2022-10-23T03:24:48;16.13;;;3.60;;
42200;SDS011;27869;51.442;7.540;2022-10-23T03:27:15;8.73;;;2.50;;
42200;SDS011;27869;51.442;7.540;2022-10-23T03:29:42;12.27;;;2.35;;
42200;SDS011;27869;51.442;7.540;2022-10-23T03:32:09;10.93;;;2.40;;
42200;SDS011;27869;51.442;7.540;2022-10-23T03:34:36;9.27;;;2.50;;
42200;SDS011;27869;51.442;7.540;2022-10-23T03:37:04;15.23;;;3.08;;
42200;SDS011;27869;51.442;7.540;2022-10-23T03:39:31;12.02;;;2.90;;
42200;SDS011;27869;51.442;7.540;2022-10-23T03:41:58;15.70;;;2.88;;
42200;SDS011;27869;51.442;7.540;2022-10-23T03:44:25;18.05;;;3.25;;
42200;SDS011;27869;51.442;7.540;2022-10-23T03:46:52;14.20;;;3.53;;
42200;SDS011;27869;51.442;7.540;2022-10-23T03:49:20;12.82;;;2.97;;
42200;SDS011;27869;51.442;7.540;2022-10-23T03:51:47;12.18;;;3.15;;
42200;SDS011;27869;51.442;7.540;2022-10-23T03:54:19;11.50;;;2.92;;
42200;SDS011;27869;51.442;7.540;2022-10-23T03:56:47;11.75;;;2.72;;
42200;SDS011;27869;51.442;7.540;2022-10-23T03:59:14;13.13;;;2.95;;
42200;SDS011;27869;51.442;7.540;2022-10-23T04:01:41;15.93;;;3.08;;
42200;SDS011;27869;51.442;7.540;2022-10-23T04:04:08;12.32;;;2.88;;
42200;SDS011;27869;51.442;7.540;2022-10-23T04:06:35;10.68;;;2.75;;
42200;SDS011;27869;51.442;7.540;2022-10-23T04:09:02;12.82;;;3.13;;
42200;SDS011;27869;51.442;7.540;2022-10-23T04:11:31;17.40;;;3.05;;
42200;SDS011;27869;51.442;7.540;2022-10-23T04:13:59;14.95;;;3.75;;
42200;SDS011;27869;51.442;7.540;2022-10-23T04:16:25;10.73;;;2.70;;
42200;SDS011;27869;51.442;7.540;2022-10-23T04:18:52;8.63;;;2.47;;
42200;SDS011;27869;51.442;7.540;2022-10-23T04:21:19;12.95;;;2.67;;
42200;SDS011;27869;51.442;7.540;2022-10-23T04:23:46;11.25;;;2.60;;
42200;SDS011;27869;51.442;7.540;2022-10-23T04:26:13;11.55;;;2.28;;
42200;SDS011;27869;51.442;7.540;2022-10-23T04:28:41;9.90;;;2.55;;
42200;SDS011;27869;51.442;7.540;2022-10-23T04:31:08;10.10;;;2.33;;
42200;SDS011;27869;51.442;7.540;2022-10-23T04:33:35;12.20;;;2.25;;
42200;SDS011;27869;51.442;7.540;2022-10-23T04:36:02;8.55;;;2.17;;
42200;SDS011;27869;51.442;7.540;2022-10-23T04:38:29;9.88;;;2.50;;
42200;SDS011;27869;51.442;7.540;2022-10-23T04:40:56;10.27;;;2.33;;
42200;SDS011;27869;51.442;7.540;2022-10-23T04:43:23;10.43;;;2.55;;
42200;SDS011;27869;51.442;7.540;2022-10-23T04:45:51;12.43;;;2.53;;
42200;SDS011;27869;51.442;7.540;2022-10-23T04:48:18;9.27;;;2.60;;
42200;SDS011;27869;51.442;7.540;2022-10-23T04:50:52;11.02;;;2.45;;
42200;SDS011;27869;51.442;7.540;2022-10-23T04:53:21;12.82;;;2.45;;
42200;SDS011;27869;51.442;7.540;2022-10-23T04:55:48;11.25;;;2.40;;
42200;SDS011;27869;51.442;7.540;2022-10-23T04:58:15;15.30;;;2.20;;
42200;SDS011;27869;51.442;7.540;2022-10-23T05:00:42;12.45;;;2.25;;
42200;SDS011;27869;51.442;7.540;2022-10-23T05:03:11;13.05;;;2.50;;
42200;SDS011;27869;51.442;7.540;2022-10-23T05:05:37;16.70;;;2.50;;
42200;SDS011;27869;51.442;7.540;2022-10-23T05:08:04;12.05;;;2.60;;
42200;SDS011;27869;51.442;7.540;2022-10-23T05:10:31;15.82;;;2.80;;
42200;SDS011;27869;51.442;7.540;2022-10-23T05:12:58;9.13;;;2.25;;
42200;SDS011;27869;51.442;7.540;2022-10-23T05:15:25;8.32;;;2.30;;
42200;SDS011;27869;51.442;7.540;2022-10-23T05:17:53;9.05;;;2.20;;
42200;SDS011;27869;51.442;7.540;2022-10-23T05:20:27;12.15;;;2.15;;
42200;SDS011;27869;51.442;7.540;2022-10-23T05:22:58;12.80;;;2.40;;
42200;SDS011;27869;51.442;7.540;2022-10-23T05:25:27;16.05;;;2.50;;
42200;SDS011;27869;51.442;7.540;2022-10-23T05:27:55;8.95;;;2.10;;
42200;SDS011;27869;51.442;7.540;2022-10-23T05:30:22;15.13;;;2.30;;
42200;SDS011;27869;51.442;7.540;2022-10-23T05:32:49;11.35;;;2.65;;
42200;SDS011;27869;51.442;7.540;2022-10-23T05:35:16;11.18;;;2.25;;
42200;SDS011;27869;51.442;7.540;2022-10-23T05:37:48;10.20;;;2.10;;
42200;SDS011;27869;51.442;7.540;2022-10-23T05:40:17;12.90;;;2.63;;
42200;SDS011;27869;51.442;7.540;2022-10-23T05:42:44;8.30;;;2.03;;
42200;SDS011;27869;51.442;7.540;2022-10-23T05:45:11;9.70;;;2.22;;
42200;SDS011;27869;51.442;7.540;2022-10-23T05:47:38;11.70;;;2.35;;
42200;SDS011;27869;51.442;7.540;2022-10-23T05:50:05;14.48;;;2.47;;
42200;SDS011;27869;51.442;7.540;2022-10-23T05:52:32;12.10;;;2.28;;
42200;SDS011;27869;51.442;7.540;2022-10-23T05:55:01;10.23;;;2.30;;
42200;SDS011;27869;51.442;7.540;2022-10-23T05:57:30;12.43;;;2.60;;
42200;SDS011;27869;51.442;7.540;2022-10-23T05:59:58;11.35;;;2.50;;
42200;SDS011;27869;51.442;7.540;2022-10-23T06:02:25;10.65;;;2.42;;
42200;SDS011;27869;51.442;7.540;2022-10-23T06:04:52;9.88;;;2.20;;
42200;SDS011;27869;51.442;7.540;2022-10-23T06:07:21;9.18;;;2.42;;
42200;SDS011;27869;51.442;7.540;2022-10-23T06:09:49;12.63;;;2.17;;
42200;SDS011;27869;51.442;7.540;2022-10-23T06:12:18;9.32;;;2.17;;
42200;SDS011;27869;51.442;7.540;2022-10-23T06:14:45;9.30;;;2.20;;
42200;SDS011;27869;51.442;7.540;2022-10-23T06:17:12;12.38;;;2.30;;
42200;SDS011;27869;51.442;7.540;2022-10-23T06:19:39;10.07;;;2.50;;
42200;SDS011;27869;51.442;7.540;2022-10-23T06:22:06;11.57;;;2.53;;
42200;SDS011;27869;51.442;7.540;2022-10-23T06:24:32;7.70;;;2.22;;
42200;SDS011;27869;51.442;7.540;2022-10-23T06:26:59;7.80;;;2.22;;
42200;SDS011;27869;51.442;7.540;2022-10-23T06:29:28;10.15;;;2.08;;
42200;SDS011;27869;51.442;7.540;2022-10-23T06:31:54;8.85;;;2.13;;
42200;SDS011;27869;51.442;7.540;2022-10-23T06:34:21;9.13;;;2.10;;
42200;SDS011;27869;51.442;7.540;2022-10-23T06:36:48;13.32;;;2.20;;
42200;SDS011;27869;51.442;7.540;2022-10-23T06:39:15;8.88;;;2.10;;
42200;SDS011;27869;51.442;7.540;2022-10-23T06:41:42;9.75;;;2.13;;
42200;SDS011;27869;51.442;7.540;2022-10-23T06:44:12;11.40;;;2.50;;
42200;SDS011;27869;51.442;7.540;2022-10-23T06:46:40;7.85;;;2.08;;
42200;SDS011;27869;51.442;7.540;2022-10-23T06:49:11;8.07;;;1.98;;
42200;SDS011;27869;51.442;7.540;2022-10-23T06:51:38;8.85;;;2.45;;
42200;SDS011;27869;51.442;7.540;2022-10-23T06:54:05;12.48;;;2.17;;
42200;SDS011;27869;51.442;7.540;2022-10-23T06:56:32;11.02;;;2.20;;
42200;SDS011;27869;51.442;7.540;2022-10-23T06:58:59;11.00;;;2.20;;
42200;SDS011;27869;51.442;7.540;2022-10-23T07:01:26;8.05;;;2.47;;
42200;SDS011;27869;51.442;7.540;2022-10-23T07:03:55;15.93;;;2.20;;
42200;SDS011;27869;51.442;7.540;2022-10-23T07:06:22;9.32;;;2.53;;
42200;SDS011;27869;51.442;7.540;2022-10-23T07:08:48;9.82;;;2.80;;
42200;SDS011;27869;51.442;7.540;2022-10-23T07:11:16;11.07;;;2.47;;
42200;SDS011;27869;51.442;7.540;2022-10-23T07:13:43;11.23;;;2.33;;
42200;SDS011;27869;51.442;7.540;2022-10-23T07:16:11;8.77;;;2.28;;
42200;SDS011;27869;51.442;7.540;2022-10-23T07:18:39;8.35;;;2.55;;
42200;SDS011;27869;51.442;7.540;2022-10-23T07:21:07;7.20;;;2.15;;
42200;SDS011;27869;51.442;7.540;2022-10-23T07:23:35;10.32;;;3.00;;
42200;SDS011;27869;51.442;7.540;2022-10-23T07:26:03;11.85;;;3.05;;
42200;SDS011;27869;51.442;7.540;2022-10-23T07:28:32;12.00;;;2.65;;
42200;SDS011;27869;51.442;7.540;2022-10-23T07:30:59;10.38;;;2.70;;
42200;SDS011;27869;51.442;7.540;2022-10-23T07:33:26;13.35;;;3.15;;
42200;SDS011;27869;51.442;7.540;2022-10-23T07:35:53;9.85;;;2.42;;
42200;SDS011;27869;51.442;7.540;2022-10-23T07:38:21;8.40;;;2.40;;
42200;SDS011;27869;51.442;7.540;2022-10-23T07:40:48;10.18;;;2.72;;
42200;SDS011;27869;51.442;7.540;2022-10-23T07:43:15;12.57;;;2.60;;
42200;SDS011;27869;51.442;7.540;2022-10-23T07:48:12;12.98;;;2.70;;
42200;SDS011;27869;51.442;7.540;2022-10-23T07:50:38;14.63;;;2.60;;
42200;SDS011;27869;51.442;7.540;2022-10-23T07:53:05;8.38;;;2.72;;
42200;SDS011;27869;51.442;7.540;2022-10-23T07:55:34;11.55;;;2.13;;
42200;SDS011;27869;51.442;7.540;2022-10-23T07:58:01;10.88;;;2.55;;
42200;SDS011;27869;51.442;7.540;2022-10-23T08:00:27;9.02;;;2.30;;
42200;SDS011;27869;51.442;7.540;2022-10-23T08:02:54;11.10;;;2.35;;
42200;SDS011;27869;51.442;7.540;2022-10-23T08:05:21;9.65;;;2.15;;
42200;SDS011;27869;51.442;7.540;2022-10-23T08:07:48;10.40;;;2.50;;
42200;SDS011;27869;51.442;7.540;2022-10-23T08:10:15;9.70;;;2.47;;
42200;SDS011;27869;51.442;7.540;2022-10-23T08:12:44;9.23;;;2.13;;
42200;SDS011;27869;51.442;7.540;2022-10-23T08:15:11;10.55;;;2.28;;
42200;SDS011;27869;51.442;7.540;2022-10-23T08:17:37;9.00;;;2.00;;
42200;SDS011;27869;51.442;7.540;2022-10-23T08:20:05;11.13;;;2.88;;
42200;SDS011;27869;51.442;7.540;2022-10-23T08:22:32;12.27;;;2.53;;
42200;SDS011;27869;51.442;7.540;2022-10-23T08:25:01;12.55;;;2.20;;
42200;SDS011;27869;51.442;7.540;2022-10-23T08:27:28;9.52;;;2.10;;
42200;SDS011;27869;51.442;7.540;2022-10-23T08:29:56;8.98;;;2.28;;
42200;SDS011;27869;51.442;7.540;2022-10-23T08:32:23;10.48;;;2.13;;
42200;SDS011;27869;51.442;7.540;2022-10-23T08:34:53;9.07;;;2.03;;
42200;SDS011;27869;51.442;7.540;2022-10-23T08:37:20;10.32;;;1.92;;
42200;SDS011;27869;51.442;7.540;2022-10-23T08:39:47;9.65;;;2.22;;
42200;SDS011;27869;51.442;7.540;2022-10-23T08:42:16;7.32;;;2.00;;
42200;SDS011;27869;51.442;7.540;2022-10-23T08:44:49;6.85;;;1.90;;
42200;SDS011;27869;51.442;7.540;2022-10-23T08:47:23;7.75;;;1.70;;
42200;SDS011;27869;51.442;7.540;2022-10-23T08:49:54;10.68;;;2.10;;
42200;SDS011;27869;51.442;7.540;2022-10-23T08:52:24;12.20;;;1.90;;
42200;SDS011;27869;51.442;7.540;2022-10-23T08:55:02;10.18;;;1.65;;
42200;SDS011;27869;51.442;7.540;2022-10-23T08:57:42;7.28;;;1.55;;
42200;SDS011;27869;51.442;7.540;2022-10-23T09:00:14;7.00;;;1.70;;
42200;SDS011;27869;51.442;7.540;2022-10-23T09:02:45;6.13;;;1.58;;
42200;SDS011;27869;51.442;7.540;2022-10-23T09:05:15;8.60;;;1.73;;
42200;SDS011;27869;51.442;7.540;2022-10-23T09:07:51;9.63;;;1.77;;
42200;SDS011;27869;51.442;7.540;2022-10-23T09:10:48;9.95;;;1.70;;
42200;SDS011;27869;51.442;7.540;2022-10-23T09:16:35;6.18;;;1.33;;
42200;SDS011;27869;51.442;7.540;2022-10-23T09:19:13;6.68;;;1.20;;
42200;SDS011;27869;51.442;7.540;2022-10-23T09:21:43;12.75;;;1.60;;
42200;SDS011;27869;51.442;7.540;2022-10-23T09:24:14;15.05;;;1.80;;
42200;SDS011;27869;51.442;7.540;2022-10-23T09:26:42;9.60;;;1.40;;
42200;SDS011;27869;51.442;7.540;2022-10-23T09:29:18;5.10;;;1.13;;
42200;SDS011;27869;51.442;7.540;2022-10-23T09:31:48;4.95;;;1.35;;
42200;SDS011;27869;51.442;7.540;2022-10-23T09:34:19;11.05;;;1.30;;
42200;SDS011;27869;51.442;7.540;2022-10-23T09:36:48;6.35;;;1.10;;
42200;SDS011;27869;51.442;7.540;2022-10-23T09:39:22;8.88;;;1.40;;
42200;SDS011;27869;51.442;7.540;2022-10-23T09:41:51;6.85;;;1.23;;
42200;SDS011;27869;51.442;7.540;2022-10-23T09:44:19;5.60;;;1.10;;
42200;SDS011;27869;51.442;7.540;2022-10-23T09:46:48;3.95;;;1.00;;
42200;SDS011;27869;51.442;7.540;2022-10-23T09:49:19;7.25;;;1.13;;
42200;SDS011;27869;51.442;7.540;2022-10-23T09:51:53;5.00;;;1.30;;
42200;SDS011;27869;51.442;7.540;2022-10-23T09:54:27;8.60;;;1.33;;
42200;SDS011;27869;51.442;7.540;2022-10-23T09:56:56;8.52;;;1.23;;
42200;SDS011;27869;51.442;7.540;2022-10-23T09:59:28;11.02;;;1.27;;
42200;SDS011;27869;51.442;7.540;2022-10-23T10:01:56;3.50;;;0.93;;
42200;SDS011;27869;51.442;7.540;2022-10-23T10:04:33;5.18;;;1.13;;
42200;SDS011;27869;51.442;7.540;2022-10-23T10:07:02;5.32;;;1.02;;
42200;SDS011;27869;51.442;7.540;2022-10-23T10:09:31;4.45;;;1.10;;
42200;SDS011;27869;51.442;7.540;2022-10-23T10:12:02;9.20;;;1.33;;
42200;SDS011;27869;51.442;7.540;2022-10-23T10:17:32;4.90;;;1.05;;
42200;SDS011;27869;51.442;7.540;2022-10-23T10:20:16;7.43;;;1.23;;
42200;SDS011;27869;51.442;7.540;2022-10-23T10:22:54;2.45;;;0.70;;
42200;SDS011;27869;51.442;7.540;2022-10-23T10:25:32;3.33;;;1.00;;
42200;SDS011;27869;51.442;7.540;2022-10-23T10:28:06;11.73;;;1.48;;
42200;SDS011;27869;51.442;7.540;2022-10-23T10:30:48;6.07;;;1.27;;
42200;SDS011;27869;51.442;7.540;2022-10-23T10:33:27;6.80;;;1.20;;
42200;SDS011;27869;51.442;7.540;2022-10-23T10:36:01;7.05;;;1.30;;
42200;SDS011;27869;51.442;7.540;2022-10-23T10:38:41;6.22;;;1.30;;
42200;SDS011;27869;51.442;7.540;2022-10-23T10:41:19;5.43;;;1.00;;
42200;SDS011;27869;51.442;7.540;2022-10-23T10:44:01;6.07;;;1.00;;
42200;SDS011;27869;51.442;7.540;2022-10-23T10:46:51;4.22;;;0.93;;
42200;SDS011;27869;51.442;7.540;2022-10-23T10:49:25;5.75;;;1.20;;
42200;SDS011;27869;51.442;7.540;2022-10-23T10:52:00;6.55;;;1.30;;
42200;SDS011;27869;51.442;7.540;2022-10-23T10:54:37;8.90;;;1.10;;
42200;SDS011;27869;51.442;7.540;2022-10-23T10:57:13;5.40;;;1.00;;
42200;SDS011;27869;51.442;7.540;2022-10-23T10:59:52;4.45;;;1.10;;
42200;SDS011;27869;51.442;7.540;2022-10-23T11:02:26;6.32;;;1.35;;
42200;SDS011;27869;51.442;7.540;2022-10-23T11:04:56;6.07;;;1.27;;
42200;SDS011;27869;51.442;7.540;2022-10-23T11:07:33;5.32;;;1.23;;
42200;SDS011;27869;51.442;7.540;2022-10-23T11:10:12;5.05;;;1.10;;
42200;SDS011;27869;51.442;7.540;2022-10-23T11:12:42;5.97;;;1.20;;
42200;SDS011;27869;51.442;7.540;2022-10-23T11:15:12;6.75;;;1.25;;
42200;SDS011;27869;51.442;7.540;2022-10-23T11:17:42;6.63;;;1.10;;
42200;SDS011;27869;51.442;7.540;2022-10-23T11:20:21;5.38;;;1.23;;
42200;SDS011;27869;51.442;7.540;2022-10-23T11:23:21;6.03;;;1.20;;
42200;SDS011;27869;51.442;7.540;2022-10-23T11:26:10;6.70;;;1.05;;
42200;SDS011;27869;51.442;7.540;2022-10-23T11:28:58;8.10;;;1.25;;
42200;SDS011;27869;51.442;7.540;2022-10-23T11:31:42;10.82;;;1.30;;
42200;SDS011;27869;51.442;7.540;2022-10-23T11:34:26;6.32;;;1.30;;
42200;SDS011;27869;51.442;7.540;2022-10-23T11:37:14;6.70;;;1.27;;
42200;SDS011;27869;51.442;7.540;2022-10-23T11:39:54;9.80;;;1.30;;
42200;SDS011;27869;51.442;7.540;2022-10-23T11:42:28;7.10;;;1.33;;
42200;SDS011;27869;51.442;7.540;2022-10-23T11:44:57;8.65;;;1.20;;
42200;SDS011;27869;51.442;7.540;2022-10-23T11:47:25;16.40;;;1.60;;
42200;SDS011;27869;51.442;7.540;2022-10-23T11:50:13;4.65;;;1.10;;
42200;SDS011;27869;51.442;7.540;2022-10-23T11:52:52;11.60;;;1.45;;
42200;SDS011;27869;51.442;7.540;2022-10-23T11:55:25;7.35;;;1.17;;
42200;SDS011;27869;51.442;7.540;2022-10-23T12:00:52;4.53;;;1.17;;
42200;SDS011;27869;51.442;7.540;2022-10-23T12:03:27;7.35;;;1.50;;
42200;SDS011;27869;51.442;7.540;2022-10-23T12:06:00;8.82;;;1.25;;
42200;SDS011;27869;51.442;7.540;2022-10-23T12:08:29;5.85;;;1.10;;
42200;SDS011;27869;51.442;7.540;2022-10-23T12:11:00;3.25;;;1.00;;
42200;SDS011;27869;51.442;7.540;2022-10-23T12:13:29;6.82;;;1.13;;
42200;SDS011;27869;51.442;7.540;2022-10-23T12:16:08;5.95;;;1.20;;
42200;SDS011;27869;51.442;7.540;2022-10-23T12:18:43;5.15;;;0.98;;
42200;SDS011;27869;51.442;7.540;2022-10-23T12:21:12;3.90;;;1.10;;
42200;SDS011;27869;51.442;7.540;2022-10-23T12:29:17;5.35;;;1.05;;
42200;SDS011;27869;51.442;7.540;2022-10-23T12:31:54;6.28;;;1.15;;
42200;SDS011;27869;51.442;7.540;2022-10-23T12:34:28;5.88;;;0.90;;
42200;SDS011;27869;51.442;7.540;2022-10-23T12:37:05;7.07;;;1.20;;
42200;SDS011;27869;51.442;7.540;2022-10-23T12:39:50;9.65;;;1.40;;
42200;SDS011;27869;51.442;7.540;2022-10-23T12:42:20;5.53;;;1.13;;
42200;SDS011;27869;51.442;7.540;2022-10-23T12:44:56;8.93;;;1.25;;
42200;SDS011;27869;51.442;7.540;2022-10-23T12:49:50;8.13;;;1.20;;
42200;SDS011;27869;51.442;7.540;2022-10-23T12:52:19;7.70;;;1.30;;
42200;SDS011;27869;51.442;7.540;2022-10-23T12:54:48;7.57;;;1.20;;
42200;SDS011;27869;51.442;7.540;2022-10-23T12:57:18;8.35;;;1.20;;
42200;SDS011;27869;51.442;7.540;2022-10-23T12:59:49;6.88;;;1.45;;
42200;SDS011;27869;51.442;7.540;2022-10-23T13:02:21;11.77;;;1.63;;
42200;SDS011;27869;51.442;7.540;2022-10-23T13:04:49;8.85;;;1.38;;
42200;SDS011;27869;51.442;7.540;2022-10-23T13:07:19;9.05;;;1.20;;
42200;SDS011;27869;51.442;7.540;2022-10-23T13:09:49;6.57;;;1.30;;
42200;SDS011;27869;51.442;7.540;2022-10-23T13:12:18;9.60;;;1.40;;
42200;SDS011;27869;51.442;7.540;2022-10-23T13:14:56;9.20;;;1.48;;
42200;SDS011;27869;51.442;7.540;2022-10-23T13:17:34;7.45;;;1.30;;
42200;SDS011;27869;51.442;7.540;2022-10-23T13:20:09;6.20;;;1.27;;
42200;SDS011;27869;51.442;7.540;2022-10-23T13:22:46;7.57;;;1.30;;
42200;SDS011;27869;51.442;7.540;2022-10-23T13:25:21;9.82;;;1.63;;
42200;SDS011;27869;51.442;7.540;2022-10-23T13:27:50;8.30;;;1.40;;
42200;SDS011;27869;51.442;7.540;2022-10-23T13:30:28;11.25;;;1.70;;
42200;SDS011;27869;51.442;7.540;2022-10-23T13:32:57;10.13;;;1.65;;
42200;SDS011;27869;51.442;7.540;2022-10-23T13:35:25;7.70;;;1.40;;
42200;SDS011;27869;51.442;7.540;2022-10-23T13:37:52;12.13;;;1.90;;
42200;SDS011;27869;51.442;7.540;2022-10-23T13:40:20;11.45;;;1.90;;
42200;SDS011;27869;51.442;7.540;2022-10-23T13:42:50;9.68;;;1.30;;
42200;SDS011;27869;51.442;7.540;2022-10-23T13:45:20;5.15;;;1.40;;
42200;SDS011;27869;51.442;7.540;2022-10-23T13:47:49;10.82;;;1.95;;
42200;SDS011;27869;51.442;7.540;2022-10-23T13:50:16;8.68;;;1.35;;
42200;SDS011;27869;51.442;7.540;2022-10-23T13:52:44;9.30;;;1.40;;
42200;SDS011;27869;51.442;7.540;2022-10-23T13:55:14;9.20;;;1.50;;
42200;SDS011;27869;51.442;7.540;2022-10-23T13:57:45;6.15;;;1.40;;
42200;SDS011;27869;51.442;7.540;2022-10-23T14:00:14;7.88;;;1.63;;
42200;SDS011;27869;51.442;7.540;2022-10-23T14:02:48;5.28;;;1.15;;
42200;SDS011;27869;51.442;7.540;2022-10-23T14:05:15;12.40;;;1.58;;
42200;SDS011;27869;51.442;7.540;2022-10-23T14:07:42;6.93;;;1.27;;
42200;SDS011;27869;51.442;7.540;2022-10-23T14:10:09;10.48;;;1.33;;
42200;SDS011;27869;51.442;7.540;2022-10-23T14:12:39;5.47;;;1.50;;
42200;SDS011;27869;51.442;7.540;2022-10-23T14:15:07;8.02;;;1.63;;
42200;SDS011;27869;51.442;7.540;2022-10-23T14:17:35;6.30;;;1.27;;
42200;SDS011;27869;51.442;7.540;2022-10-23T14:20:04;9.35;;;1.20;;
42200;SDS011;27869;51.442;7.540;2022-10-23T14:22:31;10.32;;;1.50;;
42200;SDS011;27869;51.442;7.540;2022-10-23T14:24:58;11.13;;;2.15;;
42200;SDS011;27869;51.442;7.540;2022-10-23T14:27:25;14.00;;;2.03;;
42200;SDS011;27869;51.442;7.540;2022-10-23T14:29:53;7.50;;;1.70;;
42200;SDS011;27869;51.442;7.540;2022-10-23T14:32:20;7.40;;;1.42;;
42200;SDS011;27869;51.442;7.540;2022-10-23T14:34:48;4.90;;;1.45;;
42200;SDS011;27869;51.442;7.540;2022-10-23T14:37:18;10.05;;;1.60;;
42200;SDS011;27869;51.442;7.540;2022-10-23T14:42:12;9.18;;;1.38;;
42200;SDS011;27869;51.442;7.540;2022-10-23T14:44:39;9.52;;;1.73;;
42200;SDS011;27869;51.442;7.540;2022-10-23T14:47:07;7.25;;;1.77;;
42200;SDS011;27869;51.442;7.540;2022-10-23T14:49:34;7.55;;;1.60;;
42200;SDS011;27869;51.442;7.540;2022-10-23T14:52:01;7.90;;;1.40;;
42200;SDS011;27869;51.442;7.540;2022-10-23T14:54:29;9.30;;;2.10;;
42200;SDS011;27869;51.442;7.540;2022-10-23T14:56:58;10.23;;;1.70;;
42200;SDS011;27869;51.442;7.540;2022-10-23T14:59:25;8.82;;;1.70;;
42200;SDS011;27869;51.442;7.540;2022-10-23T15:01:52;7.28;;;1.30;;
42200;SDS011;27869;51.442;7.540;2022-10-23T15:04:19;15.07;;;1.48;;
42200;SDS011;27869;51.442;7.540;2022-10-23T15:06:46;6.90;;;1.50;;
42200;SDS011;27869;51.442;7.540;2022-10-23T15:09:13;12.85;;;2.05;;
42200;SDS011;27869;51.442;7.540;2022-10-23T15:11:41;7.72;;;1.45;;
42200;SDS011;27869;51.442;7.540;2022-10-23T15:14:08;7.93;;;1.73;;
42200;SDS011;27869;51.442;7.540;2022-10-23T15:16:35;7.38;;;1.75;;
42200;SDS011;27869;51.442;7.540;2022-10-23T15:19:05;9.00;;;1.80;;
42200;SDS011;27869;51.442;7.540;2022-10-23T15:21:32;10.13;;;1.50;;